Lebanon Springs, New York
Current Conditions -  °F | °C
As of 6:54 PM on Tuesday 25 Nov 2014 (Local Time) from KPSF Reporting Station
Clear Clear  
Wind Chill: 39°   Ceiling: Unl
Heat Index: 39°   Visibility: 10mi
Dew Point: 26°   Wind: 3mph
Humidity: 60%   Direction: 220°SW
Pressure: 29.99"   Gusts: NA
Location:  42.4821°N, 73.3747°W
Report Text: KPSF 252354Z AUTO 22003KT 10SM CLR 04/M03 A2999 RMK AO2 SLP150 T00391033 10106 20033 51022
Loading
Personal Weather Stations






























Interactive Weather Map New forecast layout! Learn more

10-Day Weather Forecast

Advertisements
Track Severe Weather on mobile